createdAt,value
2023-01-17T03:59:31.515Z,0.00
2023-01-17T04:00:31.964Z,0.00
2023-01-17T04:01:32.059Z,0.00
2023-01-17T04:02:30.298Z,0.00
2023-01-17T04:03:31.944Z,0.00
2023-01-17T04:04:31.956Z,0.00
2023-01-17T04:05:31.964Z,0.00
2023-01-17T04:06:31.976Z,0.00
2023-01-17T04:07:30.225Z,0.00
2023-01-17T04:08:31.955Z,0.00
2023-01-17T04:09:31.953Z,0.00
2023-01-17T04:10:31.949Z,0.00
2023-01-17T04:11:31.464Z,0.00
2023-01-17T04:12:31.952Z,0.00
2023-01-17T04:13:31.971Z,0.00
2023-01-17T04:14:31.957Z,0.00
2023-01-17T04:15:31.203Z,0.00
2023-01-17T04:16:32.027Z,0.00
2023-01-17T04:17:31.955Z,0.00
2023-01-17T04:18:31.993Z,0.00
2023-01-17T04:19:31.963Z,0.00
2023-01-17T04:20:31.967Z,0.00
2023-01-17T04:21:31.961Z,0.00
2023-01-17T04:22:31.964Z,0.00
2023-01-17T04:23:31.999Z,0.00
2023-01-17T04:24:31.979Z,0.00
2023-01-17T04:25:31.973Z,0.00
2023-01-17T04:26:31.962Z,0.00
2023-01-17T04:27:31.963Z,0.00
2023-01-17T04:28:31.975Z,0.00
2023-01-17T04:29:31.988Z,0.00
2023-01-17T04:30:31.979Z,0.00
2023-01-17T04:31:31.570Z,0.00
2023-01-17T04:32:30.083Z,0.00
2023-01-17T04:33:31.094Z,0.00
2023-01-17T04:34:31.068Z,0.00
2023-01-17T04:35:31.980Z,0.00
2023-01-17T04:36:31.977Z,0.00
2023-01-17T04:37:31.971Z,0.00
2023-01-17T04:38:31.974Z,0.00
2023-01-17T04:39:31.982Z,0.00
2023-01-17T04:40:31.971Z,0.00
2023-01-17T04:41:32.004Z,0.00
2023-01-17T04:42:31.974Z,0.00
2023-01-17T04:43:31.977Z,0.00
2023-01-17T04:44:31.986Z,0.00
2023-01-17T04:45:31.981Z,0.00
2023-01-17T04:46:31.993Z,0.00
2023-01-17T04:47:32.004Z,0.00
2023-01-17T04:48:31.011Z,0.00
2023-01-17T04:49:31.987Z,0.00
2023-01-17T04:50:31.991Z,0.00
2023-01-17T04:51:31.508Z,0.00
2023-01-17T04:52:31.480Z,0.00
2023-01-17T04:53:31.498Z,0.00
2023-01-17T04:54:31.487Z,0.00
2023-01-17T04:55:31.497Z,0.00
2023-01-17T04:56:31.514Z,0.00
2023-01-17T04:57:29.954Z,0.00
2023-01-17T04:58:31.001Z,0.00
2023-01-17T04:59:29.959Z,0.00
2023-01-17T05:00:29.951Z,0.00
2023-01-17T05:01:30.091Z,0.00
2023-01-17T05:02:29.957Z,0.00
2023-01-17T05:03:32.030Z,0.00
2023-01-17T05:04:29.941Z,0.00
2023-01-17T05:05:29.918Z,0.00
2023-01-17T05:06:29.926Z,0.00
2023-01-17T05:07:31.501Z,0.00
2023-01-17T05:08:31.008Z,0.00
2023-01-17T05:09:30.909Z,0.00
2023-01-17T05:10:30.891Z,0.00
2023-01-17T05:11:30.897Z,0.00
2023-01-17T05:12:30.890Z,0.00
2023-01-17T05:13:31.535Z,0.00
2023-01-17T05:14:30.878Z,0.00
2023-01-17T05:15:31.572Z,0.00
2023-01-17T05:16:31.013Z,0.00
2023-01-17T05:17:31.515Z,0.00
2023-01-17T05:18:31.530Z,0.00
2023-01-17T05:19:31.557Z,0.00
2023-01-17T05:20:31.549Z,0.00
2023-01-17T05:21:31.015Z,0.00
2023-01-17T05:22:29.841Z,0.00
2023-01-17T05:23:29.835Z,0.00
2023-01-17T05:24:29.832Z,0.00
2023-01-17T05:25:31.027Z,0.00
2023-01-17T05:26:31.019Z,0.00
2023-01-17T05:27:29.831Z,0.00
2023-01-17T05:28:29.819Z,0.00
2023-01-17T05:29:29.806Z,0.00
2023-01-17T05:30:29.805Z,0.00
2023-01-17T05:31:31.031Z,0.00
2023-01-17T05:32:29.790Z,0.00
2023-01-17T05:33:29.810Z,0.00
2023-01-17T05:34:29.801Z,0.00
2023-01-17T05:35:29.802Z,0.00
2023-01-17T05:36:31.531Z,0.00
2023-01-17T05:37:30.778Z,0.00
2023-01-17T05:38:31.515Z,0.00
2023-01-17T05:39:31.527Z,0.00
2023-01-17T05:40:29.742Z,0.00
2023-01-17T05:41:31.529Z,0.00
2023-01-17T05:42:31.068Z,0.00
2023-01-17T05:43:31.595Z,0.00
2023-01-17T05:44:30.733Z,0.00
2023-01-17T05:45:31.558Z,0.00
2023-01-17T05:46:31.572Z,0.00
2023-01-17T05:47:31.549Z,0.00
2023-01-17T05:48:31.525Z,0.00
2023-01-17T05:49:31.540Z,0.00
2023-01-17T05:50:31.561Z,0.00
2023-01-17T05:51:31.541Z,0.00
2023-01-17T05:52:31.543Z,0.00
2023-01-17T05:53:31.543Z,0.00
2023-01-17T05:54:31.557Z,0.00
2023-01-17T05:55:31.535Z,0.00
2023-01-17T05:56:31.543Z,0.00
2023-01-17T05:57:31.538Z,0.00
2023-01-17T05:58:31.541Z,0.00
2023-01-17T05:59:36.940Z,0.00
2023-01-17T06:00:31.563Z,0.00
2023-01-17T06:01:31.553Z,0.00
2023-01-17T06:02:31.639Z,0.00
2023-01-17T06:03:31.541Z,0.00
2023-01-17T06:04:31.556Z,0.00
2023-01-17T06:05:31.574Z,0.00
2023-01-17T06:06:29.634Z,0.00
2023-01-17T06:07:30.633Z,0.00
2023-01-17T06:08:30.619Z,0.00
2023-01-17T06:09:31.564Z,0.00
2023-01-17T06:10:31.567Z,0.00
2023-01-17T06:11:31.546Z,0.00
2023-01-17T06:12:31.545Z,0.00
2023-01-17T06:13:31.546Z,0.00
2023-01-17T06:14:31.571Z,0.00
2023-01-17T06:15:31.587Z,0.00
2023-01-17T06:16:31.549Z,0.00
2023-01-17T06:17:31.553Z,0.00
2023-01-17T06:18:30.565Z,0.00
2023-01-17T06:19:31.556Z,0.00
2023-01-17T06:20:31.087Z,0.00
2023-01-17T06:21:31.062Z,0.00
2023-01-17T06:22:30.554Z,0.00
2023-01-17T06:23:31.179Z,0.00
2023-01-17T06:24:31.059Z,0.00
2023-01-17T06:25:31.079Z,0.00
2023-01-17T06:26:31.085Z,0.00
2023-01-17T06:27:31.064Z,0.00
2023-01-17T06:28:31.084Z,0.00
2023-01-17T06:29:31.058Z,0.00
2023-01-17T06:30:30.591Z,0.00
2023-01-17T06:31:29.583Z,0.00
2023-01-17T06:32:29.502Z,0.00
2023-01-17T06:33:29.499Z,0.00
2023-01-17T06:34:30.588Z,0.00
2023-01-17T06:35:30.495Z,0.00
2023-01-17T06:36:29.480Z,0.00
2023-01-17T06:37:32.131Z,0.00
2023-01-17T06:38:29.479Z,0.00
2023-01-17T06:39:31.091Z,0.00
2023-01-17T06:40:31.100Z,0.00
2023-01-17T06:41:30.583Z,0.00
2023-01-17T06:42:30.460Z,0.00
2023-01-17T06:43:30.447Z,0.00
2023-01-17T06:44:31.088Z,0.00
2023-01-17T06:45:29.435Z,0.00
2023-01-17T06:46:31.136Z,0.00
2023-01-17T06:47:29.427Z,0.00
2023-01-17T06:48:31.086Z,0.00
2023-01-17T06:49:29.413Z,0.00
2023-01-17T06:50:31.098Z,0.00
2023-01-17T06:51:31.092Z,0.00
2023-01-17T06:52:30.804Z,0.00
2023-01-17T06:53:29.412Z,0.00
2023-01-17T06:54:32.536Z,0.00
2023-01-17T06:55:29.412Z,0.00
2023-01-17T06:56:30.100Z,0.00
2023-01-17T06:57:29.395Z,0.00
2023-01-17T06:58:29.461Z,0.00
2023-01-17T06:59:31.137Z,4.00
2023-01-17T07:00:29.629Z,4.00
2023-01-17T07:01:31.290Z,0.00
2023-01-17T07:02:31.090Z,0.00
2023-01-17T07:03:29.380Z,4.00
2023-01-17T07:04:29.368Z,4.00
2023-01-17T07:05:29.386Z,4.00
2023-01-17T07:06:31.158Z,4.00
2023-01-17T07:07:29.334Z,4.00
2023-01-17T07:08:29.319Z,4.00
2023-01-17T07:09:29.365Z,4.00
2023-01-17T07:11:31.265Z,12.00
2023-01-17T07:12:31.097Z,12.00
2023-01-17T07:13:29.316Z,12.00
2023-01-17T07:14:31.105Z,12.00
2023-01-17T07:15:31.106Z,16.00
2023-01-17T07:16:31.143Z,20.00
2023-01-17T07:17:31.098Z,20.00
2023-01-17T07:18:31.119Z,24.00
2023-01-17T07:19:31.099Z,28.00
2023-01-17T07:20:31.256Z,28.00
2023-01-17T07:21:31.116Z,36.00
2023-01-17T07:22:29.255Z,36.00
2023-01-17T07:23:31.110Z,44.00
2023-01-17T07:24:31.102Z,48.00
2023-01-17T07:25:31.112Z,52.00
2023-01-17T07:27:31.136Z,60.00
2023-01-17T07:28:31.125Z,64.00
2023-01-17T07:29:31.108Z,72.00
2023-01-17T07:30:29.218Z,76.00
2023-01-17T07:31:31.224Z,84.00
2023-01-17T07:32:29.207Z,88.00
2023-01-17T07:33:29.235Z,96.00
2023-01-17T07:34:29.200Z,104.00
2023-01-17T07:35:31.110Z,108.00
2023-01-17T07:36:31.126Z,116.00
2023-01-17T07:37:31.116Z,120.00
2023-01-17T07:38:29.184Z,132.00
2023-01-17T07:39:29.179Z,136.00
2023-01-17T07:40:32.264Z,144.00
2023-01-17T07:41:29.163Z,156.00
2023-01-17T07:42:29.172Z,164.00
2023-01-17T07:43:31.166Z,172.00
2023-01-17T07:44:31.156Z,180.00
2023-01-17T07:45:29.150Z,188.00
2023-01-17T07:46:31.147Z,196.00
2023-01-17T07:47:31.134Z,208.00
2023-01-17T07:48:30.125Z,212.00
2023-01-17T07:49:29.637Z,224.00
2023-01-17T07:50:30.647Z,232.00
2023-01-17T07:51:30.637Z,240.00
2023-01-17T07:52:29.126Z,248.00
2023-01-17T07:53:30.651Z,256.00
2023-01-17T07:54:30.633Z,268.00
2023-01-17T07:55:30.679Z,272.00
2023-01-17T07:56:30.660Z,284.00
2023-01-17T07:57:29.659Z,292.00
2023-01-17T07:58:29.081Z,304.00
2023-01-17T08:00:29.098Z,316.00
2023-01-17T08:01:30.721Z,328.00
2023-01-17T08:03:31.679Z,348.00
2023-01-17T08:04:29.076Z,356.00
2023-01-17T08:05:29.048Z,364.00
2023-01-17T08:06:30.663Z,372.00
2023-01-17T08:07:29.043Z,380.00
2023-01-17T08:08:29.034Z,388.00
2023-01-17T08:09:29.040Z,396.00
2023-01-17T08:10:29.023Z,400.00
2023-01-17T08:11:30.680Z,412.00
2023-01-17T08:12:29.015Z,420.00
2023-01-17T08:13:29.964Z,424.00
2023-01-17T08:14:29.007Z,436.00
2023-01-17T08:15:30.643Z,444.00
2023-01-17T08:16:30.786Z,452.00
2023-01-17T08:17:28.994Z,460.00
2023-01-17T08:18:30.161Z,472.00
2023-01-17T08:19:30.648Z,480.00
2023-01-17T08:20:30.661Z,492.00
2023-01-17T08:21:30.673Z,512.00
2023-01-17T08:22:30.667Z,564.00
2023-01-17T08:23:30.656Z,656.00
2023-01-17T08:24:30.674Z,752.00
2023-01-17T08:25:28.955Z,844.00
2023-01-17T08:26:30.697Z,916.00
2023-01-17T08:27:28.951Z,980.00
2023-01-17T08:28:28.933Z,1004.00
2023-01-17T08:29:31.336Z,1016.00
2023-01-17T08:30:29.244Z,1032.00
2023-01-17T08:31:28.956Z,1044.00
2023-01-17T08:32:28.962Z,1056.00
2023-01-17T08:33:28.907Z,1068.00
2023-01-17T08:34:30.673Z,1084.00
2023-01-17T08:35:29.006Z,1104.00
2023-01-17T08:36:28.892Z,1116.00
2023-01-17T08:37:28.905Z,1152.00
2023-01-17T08:38:29.284Z,1040.00
2023-01-17T08:39:30.683Z,816.00
2023-01-17T08:40:28.949Z,1204.00
2023-01-17T08:41:30.709Z,1192.00
2023-01-17T08:42:28.893Z,1228.00
2023-01-17T08:43:29.029Z,1248.00
2023-01-17T08:44:30.757Z,1256.00
2023-01-17T08:45:28.932Z,1284.00
2023-01-17T08:46:30.004Z,1272.00
2023-01-17T08:47:28.856Z,1280.00
2023-01-17T08:48:30.817Z,1304.00
2023-01-17T08:49:28.886Z,1328.00
2023-01-17T08:50:30.683Z,1348.00
2023-01-17T08:51:30.672Z,1372.00
2023-01-17T08:52:30.713Z,1388.00
2023-01-17T08:53:30.672Z,1416.00
2023-01-17T08:54:28.821Z,1440.00
2023-01-17T08:55:28.866Z,1456.00
2023-01-17T08:56:30.705Z,1468.00
2023-01-17T08:57:29.833Z,1476.00
2023-01-17T08:58:30.552Z,1524.00
2023-01-17T08:59:28.797Z,1544.00
2023-01-17T09:00:29.698Z,1568.00
2023-01-17T09:01:30.813Z,1580.00
2023-01-17T09:02:28.786Z,1596.00
2023-01-17T09:03:28.779Z,1624.00
2023-01-17T09:05:28.846Z,1656.00
2023-01-17T09:06:28.770Z,1684.00
2023-01-17T09:07:28.784Z,1712.00
2023-01-17T09:08:30.714Z,1732.00
2023-01-17T09:09:28.762Z,1776.00
2023-01-17T09:10:28.786Z,1760.00
2023-01-17T09:11:30.726Z,1528.00
2023-01-17T09:12:28.802Z,1472.00
2023-01-17T09:13:28.737Z,960.00
2023-01-17T09:14:28.739Z,1848.00
2023-01-17T09:15:28.733Z,1872.00
2023-01-17T09:16:30.737Z,1876.00
2023-01-17T09:17:30.691Z,1884.00
2023-01-17T09:18:30.711Z,1992.00
2023-01-17T09:19:30.717Z,1948.00
2023-01-17T09:20:28.709Z,1932.00
2023-01-17T09:21:30.279Z,1924.00
2023-01-17T09:22:30.773Z,1908.00
2023-01-17T09:23:30.197Z,1920.00
2023-01-17T09:24:30.201Z,1932.00
2023-01-17T09:25:28.698Z,1928.00
2023-01-17T09:27:28.682Z,1856.00
2023-01-17T09:28:28.685Z,1976.00
2023-01-17T09:29:30.219Z,1988.00
2023-01-17T09:30:30.766Z,2016.00
2023-01-17T09:31:29.747Z,2028.00
2023-01-17T09:32:28.668Z,2064.00
2023-01-17T09:33:28.677Z,2080.00
2023-01-17T09:34:28.670Z,2068.00
2023-01-17T09:35:28.676Z,2076.00
2023-01-17T09:36:30.227Z,2000.00
2023-01-17T09:37:28.669Z,2104.00
2023-01-17T09:38:28.660Z,2148.00
2023-01-17T09:39:28.657Z,2188.00
2023-01-17T09:40:28.643Z,2200.00
2023-01-17T09:41:30.247Z,2196.00
2023-01-17T09:42:28.635Z,2168.00
2023-01-17T09:44:28.635Z,2220.00
2023-01-17T09:45:30.257Z,2216.00
2023-01-17T09:46:28.642Z,2248.00
2023-01-17T09:47:28.712Z,2248.00
2023-01-17T09:48:28.614Z,2264.00
2023-01-17T09:49:30.247Z,2248.00
2023-01-17T09:50:28.642Z,2324.00
2023-01-17T09:51:30.628Z,2368.00
2023-01-17T09:52:30.249Z,2404.00
2023-01-17T09:53:28.620Z,2380.00
2023-01-17T09:54:30.245Z,2372.00
2023-01-17T09:55:30.256Z,2388.00
2023-01-17T09:56:30.242Z,2476.00
2023-01-17T09:57:30.233Z,2452.00
2023-01-17T09:59:35.288Z,2428.00
2023-01-17T10:00:30.270Z,2364.00
2023-01-17T10:01:30.531Z,2344.00
2023-01-17T10:02:30.426Z,2424.00
2023-01-17T10:13:43.675Z,2556.00
2023-01-17T10:14:42.809Z,2396.00
2023-01-17T10:15:43.668Z,2232.00
2023-01-17T10:16:42.840Z,2376.00
2023-01-17T10:17:44.651Z,2532.00
2023-01-17T10:18:42.801Z,2200.00
2023-01-17T10:19:44.636Z,2128.00
2023-01-17T10:20:44.660Z,2180.00
2023-01-17T10:21:42.799Z,2380.00
2023-01-17T10:22:42.776Z,2304.00
2023-01-17T10:23:42.776Z,2264.00
2023-01-17T10:24:42.799Z,2436.00
2023-01-17T10:25:42.767Z,2324.00
2023-01-17T10:26:44.824Z,2212.00
2023-01-17T10:27:42.762Z,2168.00
2023-01-17T10:28:42.977Z,2284.00
2023-01-17T10:29:44.780Z,2636.00
2023-01-17T10:30:43.712Z,2912.00
2023-01-17T10:31:44.905Z,2776.00
2023-01-17T10:32:42.806Z,3028.00
2023-01-17T10:33:42.783Z,2876.00
2023-01-17T10:34:43.003Z,3064.00
2023-01-17T10:35:42.759Z,2916.00
2023-01-17T10:36:42.731Z,3164.00
2023-01-17T10:37:44.701Z,3136.00
2023-01-17T10:38:44.728Z,2840.00
2023-01-17T10:39:42.762Z,2544.00
2023-01-17T10:40:42.741Z,2580.00
2023-01-17T10:41:42.742Z,2560.00
2023-01-17T10:42:44.749Z,2456.00
2023-01-17T10:43:44.737Z,2584.00
2023-01-17T10:44:42.759Z,2452.00
2023-01-17T10:45:42.753Z,2388.00
2023-01-17T10:46:42.735Z,2504.00
2023-01-17T10:47:42.763Z,2612.00
2023-01-17T10:48:44.736Z,2688.00
2023-01-17T10:49:43.472Z,2596.00
2023-01-17T10:50:42.721Z,2540.00
2023-01-17T10:51:44.687Z,2724.00
2023-01-17T10:52:42.714Z,2808.00
2023-01-17T10:53:44.691Z,2420.00
2023-01-17T10:54:42.713Z,2372.00
2023-01-17T10:55:44.682Z,2628.00
2023-01-17T10:56:43.746Z,2508.00
2023-01-17T10:57:42.700Z,2080.00
2023-01-17T10:58:42.752Z,2584.00
2023-01-17T10:59:44.211Z,2524.00
2023-01-17T11:00:42.697Z,2500.00
2023-01-17T11:01:44.833Z,2508.00
2023-01-17T11:02:42.781Z,1560.00
2023-01-17T11:03:42.699Z,2756.00
2023-01-17T11:04:44.194Z,2456.00
2023-01-17T11:05:44.195Z,2160.00
2023-01-17T11:06:57.626Z,2508.00
2023-01-17T11:07:42.686Z,2224.00
2023-01-17T11:08:44.201Z,1908.00
2023-01-17T11:09:42.694Z,1948.00
2023-01-17T11:10:44.182Z,2220.00
2023-01-17T11:11:44.199Z,2160.00
2023-01-17T11:12:43.684Z,2176.00
2023-01-17T11:13:42.682Z,2384.00
2023-01-17T11:14:44.202Z,2560.00
2023-01-17T11:15:44.707Z,2684.00
2023-01-17T11:16:44.202Z,1928.00
2023-01-17T11:17:44.227Z,2560.00
2023-01-17T11:18:42.672Z,2976.00
2023-01-17T11:19:44.701Z,2884.00
2023-01-17T11:20:44.196Z,2756.00
2023-01-17T11:21:45.758Z,2844.00
2023-01-17T11:22:44.226Z,3172.00
2023-01-17T11:23:42.692Z,3128.00
2023-01-17T11:25:44.203Z,3780.00
2023-01-17T11:26:42.685Z,3596.00
2023-01-17T11:27:44.207Z,2948.00
2023-01-17T11:28:42.656Z,2932.00
2023-01-17T11:29:42.663Z,2988.00
2023-01-17T11:30:42.705Z,2784.00
2023-01-17T11:31:42.674Z,2480.00
2023-01-17T11:32:44.218Z,2384.00
2023-01-17T11:33:42.695Z,2096.00
2023-01-17T11:34:42.648Z,2332.00
2023-01-17T11:35:44.222Z,2508.00
2023-01-17T11:36:44.229Z,3376.00
2023-01-17T11:37:44.207Z,3544.00
2023-01-17T11:38:44.221Z,3412.00
2023-01-17T11:39:44.483Z,3484.00
2023-01-17T11:40:42.641Z,2988.00
2023-01-17T11:41:44.233Z,2728.00
2023-01-17T11:42:44.218Z,2484.00
2023-01-17T11:43:44.220Z,2520.00
2023-01-17T11:44:44.228Z,2680.00
2023-01-17T11:45:44.229Z,2932.00
2023-01-17T11:46:44.234Z,3024.00
2023-01-17T11:47:44.220Z,2464.00
2023-01-17T11:48:44.221Z,2440.00
2023-01-17T11:49:44.241Z,2480.00
2023-01-17T11:50:44.289Z,2704.00
2023-01-17T11:52:44.244Z,2936.00
2023-01-17T11:53:44.453Z,3352.00
2023-01-17T11:54:44.223Z,2992.00
2023-01-17T11:55:44.225Z,2588.00
2023-01-17T11:56:44.232Z,2536.00
2023-01-17T11:57:44.705Z,2496.00
2023-01-17T11:58:44.231Z,2456.00
2023-01-17T11:59:44.360Z,2456.00
2023-01-17T12:00:42.614Z,2460.00
2023-01-17T12:01:42.607Z,2408.00
2023-01-17T12:02:44.247Z,2656.00
2023-01-17T12:03:42.663Z,2584.00
2023-01-17T12:04:42.658Z,3488.00
2023-01-17T12:05:42.629Z,2864.00
2023-01-17T12:06:56.837Z,2416.00
2023-01-17T12:07:44.337Z,2464.00
2023-01-17T12:08:44.263Z,2708.00
2023-01-17T12:09:43.274Z,2864.00
2023-01-17T12:10:44.254Z,2984.00
2023-01-17T12:11:44.244Z,3284.00
2023-01-17T12:12:44.255Z,3440.00
2023-01-17T12:13:44.258Z,3596.00
2023-01-17T12:14:44.301Z,3456.00
2023-01-17T12:15:42.821Z,3704.00
2023-01-17T12:16:45.257Z,4256.00
2023-01-17T12:17:42.922Z,4380.00
2023-01-17T12:18:49.366Z,4420.00
2023-01-17T12:19:42.749Z,3096.00
2023-01-17T12:20:42.682Z,2824.00
2023-01-17T12:21:42.609Z,4380.00
2023-01-17T12:22:42.847Z,2948.00
2023-01-17T12:23:42.877Z,4624.00
2023-01-17T12:24:44.473Z,4132.00
2023-01-17T12:25:42.781Z,5588.00
2023-01-17T12:26:42.705Z,4740.00
2023-01-17T12:27:43.508Z,4468.00
2023-01-17T12:28:43.190Z,4220.00
2023-01-17T12:29:44.670Z,3068.00
2023-01-17T12:30:44.871Z,2628.00
2023-01-17T12:31:42.715Z,2660.00
2023-01-17T12:32:42.597Z,2924.00
2023-01-17T12:33:42.790Z,2712.00
2023-01-17T12:34:44.382Z,2628.00
2023-01-17T12:35:43.292Z,2912.00
2023-01-17T12:36:43.340Z,3780.00
2023-01-17T12:37:43.419Z,3816.00
2023-01-17T12:38:42.868Z,3240.00
2023-01-17T12:39:44.342Z,3188.00
2023-01-17T12:40:43.154Z,3712.00
2023-01-17T12:41:43.874Z,3784.00
2023-01-17T12:42:42.727Z,2948.00
2023-01-17T12:43:42.620Z,3060.00
2023-01-17T12:44:45.167Z,3404.00
2023-01-17T12:45:42.621Z,3956.00
2023-01-17T12:46:44.505Z,3240.00
2023-01-17T12:47:42.660Z,2560.00
2023-01-17T12:48:42.890Z,2428.00
2023-01-17T12:49:42.889Z,2568.00
2023-01-17T12:50:44.544Z,2632.00
2023-01-17T12:51:42.895Z,2616.00
2023-01-17T12:52:42.731Z,2596.00
2023-01-17T12:53:42.704Z,2680.00
2023-01-17T12:54:43.453Z,2876.00
2023-01-17T12:55:44.320Z,3032.00
2023-01-17T12:56:42.741Z,5124.00
2023-01-17T12:57:42.626Z,5420.00
2023-01-17T12:58:42.794Z,5368.00
2023-01-17T12:59:42.887Z,6196.00
2023-01-17T13:00:44.570Z,6588.00
2023-01-17T13:03:42.564Z,6532.00
2023-01-17T13:04:57.721Z,10216.00
2023-01-17T13:05:44.299Z,16392.00
2023-01-17T13:06:43.217Z,15840.00
2023-01-17T13:07:42.791Z,14812.00
2023-01-17T13:08:42.573Z,15316.00
2023-01-17T13:09:44.565Z,18848.00
2023-01-17T13:10:42.596Z,16928.00
2023-01-17T13:11:42.477Z,13028.00
2023-01-17T13:12:42.604Z,8864.00
2023-01-17T13:13:44.322Z,8216.00
2023-01-17T13:14:43.372Z,9376.00
2023-01-17T13:15:42.493Z,8580.00
2023-01-17T13:16:42.481Z,10392.00
2023-01-17T13:17:45.135Z,7960.00
2023-01-17T13:18:42.992Z,10304.00
2023-01-17T13:19:42.536Z,13004.00
2023-01-17T13:20:42.465Z,14340.00
2023-01-17T13:21:44.405Z,13828.00
2023-01-17T13:22:44.371Z,12372.00
2023-01-17T13:23:44.338Z,13104.00
2023-01-17T13:24:42.459Z,11092.00
2023-01-17T13:25:42.488Z,10032.00
2023-01-17T13:26:44.324Z,10184.00
2023-01-17T13:27:42.482Z,8620.00
2023-01-17T13:28:42.457Z,3716.00
2023-01-17T13:29:44.340Z,8196.00
2023-01-17T13:30:42.459Z,12072.00
2023-01-17T13:31:42.529Z,7900.00
2023-01-17T13:32:42.465Z,5276.00
2023-01-17T13:33:44.337Z,4516.00
2023-01-17T13:34:42.446Z,5516.00
2023-01-17T13:35:42.448Z,3952.00
2023-01-17T13:36:42.446Z,4072.00
2023-01-17T13:37:44.349Z,6524.00
2023-01-17T13:38:42.442Z,8048.00
2023-01-17T13:39:43.846Z,9020.00
2023-01-17T13:40:42.441Z,9716.00
2023-01-17T13:41:44.363Z,11964.00
2023-01-17T13:42:44.338Z,11944.00
2023-01-17T13:43:44.363Z,19520.00
2023-01-17T13:44:44.328Z,23264.00
2023-01-17T13:45:44.396Z,21792.00
2023-01-17T13:46:44.331Z,21792.00
2023-01-17T13:47:44.378Z,19360.00
2023-01-17T13:48:44.349Z,14048.00
2023-01-17T13:49:44.348Z,13120.00
2023-01-17T13:50:44.376Z,13820.00
2023-01-17T13:51:44.345Z,13916.00
2023-01-17T13:52:44.357Z,12656.00
2023-01-17T13:53:44.359Z,11252.00
2023-01-17T13:54:44.338Z,8468.00
2023-01-17T13:55:44.345Z,6472.00
2023-01-17T13:56:44.372Z,9124.00
2023-01-17T13:57:44.357Z,9140.00
2023-01-17T13:58:42.431Z,8956.00
2023-01-17T13:59:44.383Z,9128.00
2023-01-17T14:00:42.427Z,7696.00
2023-01-17T14:01:43.509Z,6868.00
2023-01-17T14:02:42.503Z,7004.00
2023-01-17T14:03:43.419Z,6268.00
2023-01-17T14:04:42.418Z,5272.00
2023-01-17T14:05:44.361Z,5192.00
2023-01-17T14:06:44.364Z,5412.00
2023-01-17T14:07:42.410Z,6944.00
2023-01-17T14:08:44.347Z,5832.00
2023-01-17T14:09:44.373Z,5072.00
2023-01-17T14:10:42.505Z,4288.00
2023-01-17T14:11:42.410Z,4188.00
2023-01-17T14:12:42.410Z,3276.00
2023-01-17T14:13:42.445Z,3092.00
2023-01-17T14:14:44.468Z,2756.00
2023-01-17T14:15:44.376Z,2612.00
2023-01-17T14:16:44.324Z,2560.00
2023-01-17T14:17:42.409Z,2184.00
2023-01-17T14:18:44.370Z,2060.00
2023-01-17T14:20:43.406Z,1748.00
2023-01-17T14:21:42.396Z,1720.00
2023-01-17T14:22:44.378Z,1620.00
2023-01-17T14:23:42.391Z,1612.00
2023-01-17T14:24:44.387Z,1768.00
2023-01-17T14:25:42.386Z,1836.00
2023-01-17T14:26:42.398Z,1832.00
2023-01-17T14:27:42.408Z,1936.00
2023-01-17T14:28:43.903Z,1848.00
2023-01-17T14:29:43.910Z,1500.00
2023-01-17T14:30:43.871Z,1392.00
2023-01-17T14:31:44.918Z,1384.00
2023-01-17T14:32:42.379Z,1256.00
2023-01-17T14:33:43.905Z,1196.00
2023-01-17T14:34:43.949Z,1228.00
2023-01-17T14:35:43.369Z,1288.00
2023-01-17T14:36:43.890Z,1292.00
2023-01-17T14:37:43.387Z,1312.00
2023-01-17T14:38:43.381Z,1308.00
2023-01-17T14:39:43.357Z,1272.00
2023-01-17T14:40:42.353Z,1448.00
2023-01-17T14:41:42.354Z,2040.00
2023-01-17T14:42:43.408Z,4700.00
2023-01-17T14:43:43.885Z,5884.00
2023-01-17T14:44:43.890Z,5260.00
2023-01-17T14:45:43.945Z,3652.00
2023-01-17T14:46:43.912Z,2028.00
2023-01-17T14:47:42.671Z,1816.00
2023-01-17T14:48:43.907Z,1840.00
2023-01-17T14:49:42.335Z,1776.00
2023-01-17T14:50:42.338Z,1828.00
2023-01-17T14:51:42.335Z,1772.00
2023-01-17T14:52:43.912Z,1688.00
2023-01-17T14:53:43.902Z,1576.00
2023-01-17T14:54:43.891Z,1488.00
2023-01-17T14:55:42.323Z,1408.00
2023-01-17T14:56:42.320Z,1320.00
2023-01-17T14:57:43.898Z,1256.00
2023-01-17T14:58:43.909Z,1200.00
2023-01-17T14:59:42.305Z,1144.00
2023-01-17T15:00:42.296Z,1100.00
2023-01-17T15:01:42.513Z,1072.00
2023-01-17T15:02:44.183Z,1044.00
2023-01-17T15:03:42.301Z,1024.00
2023-01-17T15:04:42.292Z,1004.00
2023-01-17T15:05:42.288Z,984.00
2023-01-17T15:06:42.278Z,936.00
2023-01-17T15:07:42.272Z,896.00
2023-01-17T15:08:43.922Z,868.00
2023-01-17T15:09:42.272Z,844.00
2023-01-17T15:10:42.266Z,816.00
2023-01-17T15:11:42.264Z,800.00
2023-01-17T15:12:42.276Z,772.00
2023-01-17T15:13:45.141Z,748.00
2023-01-17T15:14:43.964Z,716.00
2023-01-17T15:15:43.911Z,680.00
2023-01-17T15:16:44.029Z,644.00
2023-01-17T15:17:43.959Z,616.00
2023-01-17T15:18:43.915Z,588.00
2023-01-17T15:19:43.914Z,564.00
2023-01-17T15:20:43.916Z,540.00
2023-01-17T15:21:43.934Z,516.00
2023-01-17T15:22:43.934Z,492.00
2023-01-17T15:23:43.918Z,472.00
2023-01-17T15:24:43.923Z,452.00
2023-01-17T15:25:43.931Z,436.00
2023-01-17T15:26:42.215Z,416.00
2023-01-17T15:27:43.934Z,404.00
2023-01-17T15:28:42.202Z,388.00
2023-01-17T15:29:42.198Z,372.00
2023-01-17T15:30:42.225Z,356.00
2023-01-17T15:31:42.192Z,344.00
2023-01-17T15:32:43.440Z,320.00
2023-01-17T15:33:42.202Z,300.00
2023-01-17T15:34:42.189Z,280.00
2023-01-17T15:35:42.193Z,260.00
2023-01-17T15:36:43.941Z,248.00
2023-01-17T15:37:42.175Z,228.00
2023-01-17T15:38:42.174Z,212.00
2023-01-17T15:39:43.443Z,196.00
2023-01-17T15:40:42.164Z,184.00
2023-01-17T15:41:42.153Z,172.00
2023-01-17T15:42:42.158Z,160.00
2023-01-17T15:43:43.454Z,148.00
2023-01-17T15:44:48.627Z,136.00
2023-01-17T15:45:42.224Z,128.00
2023-01-17T15:46:43.954Z,116.00
2023-01-17T15:47:43.129Z,108.00
2023-01-17T15:48:43.132Z,96.00
2023-01-17T15:49:43.503Z,88.00
2023-01-17T15:50:43.123Z,80.00
2023-01-17T15:51:43.953Z,72.00
2023-01-17T15:52:43.113Z,64.00
2023-01-17T15:53:43.980Z,60.00
2023-01-17T15:54:43.106Z,52.00
2023-01-17T15:55:43.966Z,44.00
2023-01-17T15:56:43.963Z,44.00
2023-01-17T15:57:44.945Z,36.00
2023-01-17T15:58:43.087Z,32.00
2023-01-17T15:59:43.952Z,28.00
2023-01-17T16:00:44.241Z,24.00
2023-01-17T16:12:57.282Z,4.00
2023-01-17T16:13:58.203Z,4.00
2023-01-17T16:15:11.396Z,4.00
2023-01-17T16:15:58.239Z,0.00
2023-01-17T16:16:58.260Z,4.00
2023-01-17T16:17:58.244Z,4.00
2023-01-17T16:18:58.210Z,4.00
2023-01-17T16:19:58.212Z,0.00
2023-01-17T16:20:58.289Z,0.00
2023-01-17T16:21:58.233Z,0.00
2023-01-17T16:22:57.251Z,0.00
2023-01-17T16:23:58.218Z,0.00
2023-01-17T16:24:58.263Z,0.00
2023-01-17T16:25:57.729Z,0.00
2023-01-17T16:26:57.714Z,0.00
2023-01-17T16:27:56.213Z,0.00
2023-01-17T16:28:56.220Z,0.00
2023-01-17T16:29:57.715Z,0.00
2023-01-17T16:30:57.800Z,0.00
2023-01-17T16:31:57.726Z,0.00
2023-01-17T16:32:56.223Z,0.00
2023-01-17T16:33:56.198Z,0.00
2023-01-17T16:34:56.190Z,0.00
2023-01-17T16:35:57.749Z,0.00
2023-01-17T16:36:56.171Z,0.00
2023-01-17T16:37:56.775Z,0.00
2023-01-17T16:38:56.154Z,0.00
2023-01-17T16:39:57.738Z,0.00
2023-01-17T16:40:57.767Z,0.00
2023-01-17T16:41:57.727Z,0.00
2023-01-17T16:42:57.752Z,0.00
2023-01-17T16:43:57.728Z,0.00
2023-01-17T16:44:57.146Z,0.00
2023-01-17T16:45:57.777Z,0.00
2023-01-17T16:46:57.733Z,0.00
2023-01-17T16:47:57.771Z,0.00
2023-01-17T16:48:57.745Z,0.00
2023-01-17T16:49:57.735Z,0.00
2023-01-17T16:50:57.736Z,0.00
2023-01-17T16:51:57.742Z,0.00
2023-01-17T16:52:57.758Z,0.00
2023-01-17T16:53:57.745Z,0.00
2023-01-17T16:54:57.735Z,0.00
2023-01-17T16:55:57.752Z,0.00
2023-01-17T16:56:57.756Z,0.00
2023-01-17T16:57:57.752Z,0.00
2023-01-17T16:58:57.753Z,0.00
2023-01-17T16:59:57.746Z,0.00
2023-01-17T17:00:57.811Z,0.00
2023-01-17T17:01:57.773Z,0.00
2023-01-17T17:02:57.796Z,0.00
2023-01-17T17:03:57.053Z,0.00
2023-01-17T17:04:56.053Z,0.00
2023-01-17T17:05:57.293Z,0.00